Time;durP1;ratioP1;P1;durP2;ratioP2;P2;SDS_P1;SDS_P2;PMS_P1;PMS_P2;Temp;Humidity;BMP_temperature;BMP_pressure;BME280_temperature;BME280_humidity;BME280_pressure;Samples;Min_cycle;Max_cycle;Signal;HPM_P1;HPM_P2
2022/11/01 00:00:27;;;;;;;13.88;5.82;;;;;;;;;;5117292;27;20107;-82
2022/11/01 00:02:54;;;;;;;14.45;5.90;;;;;;;;;;5129764;27;20067;-82
2022/11/01 00:05:30;;;;;;;13.15;5.85;;;;;;;;;;5148694;27;20058;-82
2022/11/01 00:07:57;;;;;;;14.98;6.10;;;;;;;;;;5148458;27;20059;-82
2022/11/01 00:10:26;;;;;;;19.90;5.97;;;;;;;;;;5123515;27;20054;-82
2022/11/01 00:12:57;;;;;;;;;;;;;;;;;;5127724;27;20053;-82
2022/11/01 00:15:36;;;;;;;12.20;5.22;;;;;;;;;;5145142;27;45585;-82
2022/11/01 00:18:04;;;;;;;13.05;6.20;;;;;;;;;;5140860;27;20055;-82
2022/11/01 00:20:45;;;;;;;;;;;;;;;;;;;;;
2022/11/01 00:23:22;;;;;;;18.40;6.05;;;;;;;;;;5141913;27;20052;-82
2022/11/01 00:25:59;;;;;;;11.50;5.70;;;;;;;;;;5147655;27;20059;-82
2022/11/01 00:28:36;;;;;;;16.17;6.15;;;;;;;;;;5129416;27;20051;-83
2022/11/01 00:31:09;;;;;;;17.95;7.07;;;;;;;;;;5147625;27;20146;-83
2022/11/01 00:33:46;;;;;;;17.13;6.35;;;;;;;;;;5146640;27;20058;-83
2022/11/01 00:36:15;;;;;;;17.38;6.40;;;;;;;;;;5129438;27;20062;-83
2022/11/01 00:38:50;;;;;;;16.00;6.47;;;;;;;;;;5126683;27;21096;-84
2022/11/01 00:41:21;;;;;;;14.15;6.47;;;;;;;;;;5148252;27;20051;-84
2022/11/01 00:44:05;;;;;;;11.93;6.20;;;;;;;;;;5130212;27;20526;-84
2022/11/01 00:46:33;;;;;;;15.85;6.57;;;;;;;;;;5128766;27;20047;-84
2022/11/01 00:49:10;;;;;;;13.30;6.35;;;;;;;;;;5120386;27;20051;-83
2022/11/01 00:51:48;;;;;;;15.73;6.93;;;;;;;;;;5110555;27;20063;-83
2022/11/01 00:54:18;;;;;;;15.70;6.55;;;;;;;;;;5109280;27;20138;-83
2022/11/01 00:56:50;;;;;;;16.33;7.65;;;;;;;;;;5110536;27;20133;-83
2022/11/01 00:59:20;;;;;;;17.88;6.70;;;;;;;;;;5125426;27;20055;-83
2022/11/01 01:01:50;;;;;;;16.38;6.22;;;;;;;;;;5127236;27;20055;-83
2022/11/01 01:04:24;;;;;;;12.65;6.10;;;;;;;;;;5123570;27;20513;-83
2022/11/01 01:06:51;;;;;;;15.43;6.95;;;;;;;;;;5146843;27;20043;-83
2022/11/01 01:09:20;;;;;;;15.75;6.18;;;;;;;;;;5143319;27;20058;-83
2022/11/01 01:11:59;;;;;;;14.95;6.05;;;;;;;;;;5107760;27;20058;-83
2022/11/01 01:14:26;;;;;;;16.65;6.65;;;;;;;;;;5111053;27;20047;-83
2022/11/01 01:16:58;;;;;;;15.70;5.93;;;;;;;;;;5130335;27;20532;-83
2022/11/01 01:19:30;;;;;;;14.40;6.03;;;;;;;;;;5143198;27;20074;-83
2022/11/01 01:22:15;;;;;;;15.93;6.25;;;;;;;;;;5143950;27;20066;-83
2022/11/01 01:24:54;;;;;;;13.75;5.60;;;;;;;;;;5130754;27;20051;-83
2022/11/01 01:27:32;;;;;;;13.30;5.50;;;;;;;;;;5128842;27;20058;-83
2022/11/01 01:30:06;;;;;;;13.30;5.55;;;;;;;;;;5144732;27;20146;-83
2022/11/01 01:32:40;;;;;;;14.25;5.70;;;;;;;;;;5120201;27;20498;-83
2022/11/01 01:35:11;;;;;;;15.75;5.80;;;;;;;;;;5121760;27;20156;-83
2022/11/01 01:37:40;;;;;;;13.57;5.80;;;;;;;;;;5148192;27;21089;-83
2022/11/01 01:40:10;;;;;;;17.52;5.90;;;;;;;;;;5122468;27;20059;-83
2022/11/01 01:42:39;;;;;;;14.57;6.22;;;;;;;;;;5108783;27;20052;-83
2022/11/01 01:45:32;;;;;;;11.75;6.18;;;;;;;;;;5108390;27;20058;-83
2022/11/01 01:48:10;;;;;;;13.35;6.10;;;;;;;;;;5120813;27;20055;-83
2022/11/01 01:50:58;;;;;;;14.05;5.60;;;;;;;;;;5125009;27;20056;-83
2022/11/01 01:53:41;;;;;;;12.65;5.55;;;;;;;;;;5110895;27;20064;-83
2022/11/01 01:56:15;;;;;;;16.17;6.15;;;;;;;;;;5112290;27;20055;-83
2022/11/01 01:58:49;;;;;;;14.25;5.53;;;;;;;;;;5129276;27;20057;-83
2022/11/01 02:01:16;;;;;;;12.48;5.30;;;;;;;;;;5128677;27;20054;-83
2022/11/01 02:03:47;;;;;;;13.93;5.30;;;;;;;;;;5129824;27;20055;-83
2022/11/01 02:06:19;;;;;;;13.85;5.63;;;;;;;;;;5147663;27;20058;-83
2022/11/01 02:08:57;;;;;;;10.75;5.10;;;;;;;;;;5128834;27;20606;-83
2022/11/01 02:11:32;;;;;;;14.93;6.05;;;;;;;;;;5128023;27;20082;-83
2022/11/01 02:14:04;;;;;;;14.25;6.07;;;;;;;;;;5147960;27;20055;-84
2022/11/01 02:16:33;;;;;;;10.88;5.25;;;;;;;;;;5129503;27;20050;-84
2022/11/01 02:19:05;;;;;;;14.15;5.93;;;;;;;;;;5128150;27;20058;-84
2022/11/01 02:21:45;;;;;;;15.45;5.60;;;;;;;;;;5127167;27;20051;-83
2022/11/01 02:24:33;;;;;;;12.98;5.63;;;;;;;;;;5148133;27;20062;-83
2022/11/01 02:27:17;;;;;;;13.52;5.45;;;;;;;;;;5150146;27;20147;-83
2022/11/01 02:29:52;;;;;;;14.27;5.35;;;;;;;;;;5131865;27;20131;-83
2022/11/01 02:32:45;;;;;;;12.50;5.78;;;;;;;;;;5133491;27;20903;-83
2022/11/01 02:35:34;;;;;;;16.92;6.47;;;;;;;;;;5149031;27;20055;-83
2022/11/01 02:38:15;;;;;;;12.23;5.35;;;;;;;;;;5113722;27;20044;-84
2022/11/01 02:40:48;;;;;;;16.10;5.55;;;;;;;;;;5129266;27;20058;-83
2022/11/01 02:43:25;;;;;;;13.18;5.07;;;;;;;;;;5122615;27;20059;-83
2022/11/01 02:45:57;;;;;;;13.55;5.55;;;;;;;;;;5151551;27;20046;-83
2022/11/01 02:48:31;;;;;;;16.33;5.35;;;;;;;;;;5137041;27;20082;-83
2022/11/01 02:51:05;;;;;;;13.85;5.18;;;;;;;;;;5133502;27;20558;-83
2022/11/01 02:53:38;;;;;;;11.75;5.20;;;;;;;;;;5133225;27;20112;-84
2022/11/01 02:56:09;;;;;;;13.65;5.75;;;;;;;;;;5134468;27;20868;-83
2022/11/01 02:58:46;;;;;;;15.20;5.57;;;;;;;;;;5125269;27;20146;-83
2022/11/01 03:01:23;;;;;;;12.18;4.88;;;;;;;;;;5133975;27;20065;-83
2022/11/01 03:03:52;;;;;;;11.07;5.35;;;;;;;;;;5130158;27;20100;-83
2022/11/01 03:06:38;;;;;;;13.75;5.30;;;;;;;;;;5130984;27;20055;-83
2022/11/01 03:09:15;;;;;;;13.00;5.50;;;;;;;;;;5131363;27;20108;-83
2022/11/01 03:11:48;;;;;;;13.63;4.78;;;;;;;;;;5130680;27;20059;-83
2022/11/01 03:14:25;;;;;;;10.95;4.95;;;;;;;;;;5123733;27;20138;-83
2022/11/01 03:17:04;;;;;;;10.98;5.03;;;;;;;;;;5110089;27;20067;-83
2022/11/01 03:19:55;;;;;;;12.82;4.32;;;;;;;;;;5143088;27;20056;-84
2022/11/01 03:22:36;;;;;;;12.15;5.05;;;;;;;;;;5130977;27;20134;-83
2022/11/01 03:28:00;;;;;;;12.48;4.80;;;;;;;;;;5146566;27;20131;-83
2022/11/01 03:30:32;;;;;;;10.07;4.40;;;;;;;;;;5124944;27;20062;-83
2022/11/01 03:33:03;;;;;;;11.70;4.70;;;;;;;;;;5125895;27;20043;-83
2022/11/01 03:35:35;;;;;;;8.20;4.50;;;;;;;;;;5121393;27;20128;-83
2022/11/01 03:38:09;;;;;;;11.93;4.72;;;;;;;;;;5129442;27;20055;-83
2022/11/01 03:40:38;;;;;;;13.93;4.53;;;;;;;;;;5130183;27;21053;-83
2022/11/01 03:43:13;;;;;;;13.00;4.75;;;;;;;;;;5138680;27;20170;-83
2022/11/01 03:45:48;;;;;;;12.13;4.53;;;;;;;;;;5130862;27;20055;-83
2022/11/01 03:48:16;;;;;;;11.15;4.57;;;;;;;;;;5142906;27;20091;-84
2022/11/01 03:50:50;;;;;;;8.10;3.40;;;;;;;;;;5115444;27;20818;-83
2022/11/01 03:53:24;;;;;;;9.02;3.00;;;;;;;;;;5131238;27;20043;-83
2022/11/01 03:55:56;;;;;;;7.85;2.40;;;;;;;;;;5149407;27;20046;-84
2022/11/01 03:58:40;;;;;;;6.43;2.03;;;;;;;;;;5126955;27;20062;-84
2022/11/01 04:01:14;;;;;;;7.55;1.75;;;;;;;;;;5131714;27;20055;-84
2022/11/01 04:03:46;;;;;;;8.18;1.52;;;;;;;;;;5130466;27;20083;-84
2022/11/01 04:06:21;;;;;;;3.40;1.20;;;;;;;;;;5147900;27;20051;-84
2022/11/01 04:09:04;;;;;;;3.92;1.20;;;;;;;;;;5143381;27;20079;-84
2022/11/01 04:11:39;;;;;;;5.22;1.13;;;;;;;;;;5147810;27;20050;-83
2022/11/01 04:22:39;;;;;;;4.03;1.00;;;;;;;;;;5102956;28;20055;-83
2022/11/01 04:25:06;;;;;;;5.80;1.23;;;;;;;;;;5126164;27;20077;-81
2022/11/01 04:27:39;;;;;;;3.20;1.00;;;;;;;;;;5126623;27;20058;-82
2022/11/01 04:30:22;;;;;;;3.25;0.90;;;;;;;;;;5145755;27;20054;-82
2022/11/01 04:35:54;;;;;;;3.92;1.02;;;;;;;;;;5132133;27;20059;-82
2022/11/01 04:38:31;;;;;;;5.00;1.20;;;;;;;;;;5128176;27;20054;-82
2022/11/01 04:41:06;;;;;;;4.40;0.93;;;;;;;;;;5129671;27;20089;-82
2022/11/01 04:43:42;;;;;;;4.10;1.20;;;;;;;;;;5126634;27;20051;-82
2022/11/01 04:46:12;;;;;;;5.50;1.00;;;;;;;;;;5129303;27;20059;-82
2022/11/01 04:48:42;;;;;;;6.65;1.15;;;;;;;;;;5126882;27;20102;-82
2022/11/01 04:51:20;;;;;;;2.40;1.00;;;;;;;;;;5129589;27;20838;-82
2022/11/01 04:53:53;;;;;;;5.68;1.10;;;;;;;;;;5147398;27;21023;-82
2022/11/01 04:56:30;;;;;;;3.25;1.30;;;;;;;;;;5130098;27;20171;-82
2022/11/01 04:59:06;;;;;;;2.85;0.95;;;;;;;;;;5123587;27;20052;-82
2022/11/01 05:01:44;;;;;;;4.00;1.10;;;;;;;;;;5112330;27;20104;-82
2022/11/01 05:04:15;;;;;;;3.67;1.05;;;;;;;;;;5123498;27;20054;-82
2022/11/01 05:06:47;;;;;;;4.30;1.00;;;;;;;;;;5109371;27;20047;-82
2022/11/01 05:09:20;;;;;;;5.00;1.17;;;;;;;;;;5121877;27;20138;-83
2022/11/01 05:11:47;;;;;;;2.28;0.90;;;;;;;;;;5127866;27;20047;-82
2022/11/01 05:14:20;;;;;;;4.05;0.80;;;;;;;;;;5128420;27;20066;-83
2022/11/01 05:17:00;;;;;;;4.10;0.80;;;;;;;;;;5129288;27;20150;-82
2022/11/01 05:19:34;;;;;;;2.58;0.65;;;;;;;;;;5142290;27;20142;-83
2022/11/01 05:22:11;;;;;;;3.60;0.80;;;;;;;;;;5124165;27;20853;-83
2022/11/01 05:24:41;;;;;;;4.93;0.93;;;;;;;;;;5120189;27;20061;-83
2022/11/01 05:27:14;;;;;;;7.20;1.13;;;;;;;;;;5145088;27;20051;-83
2022/11/01 05:29:44;;;;;;;4.38;0.80;;;;;;;;;;5147441;27;20062;-82
2022/11/01 05:32:16;;;;;;;4.03;0.90;;;;;;;;;;5127004;27;20034;-82
2022/11/01 05:34:55;;;;;;;6.50;0.77;;;;;;;;;;5135890;27;20062;-82
2022/11/01 05:37:25;;;;;;;2.78;0.95;;;;;;;;;;5113964;27;20056;-82
2022/11/01 05:39:56;;;;;;;5.38;0.90;;;;;;;;;;5129095;27;20134;-82
2022/11/01 05:42:27;;;;;;;3.20;0.90;;;;;;;;;;5128147;27;20214;-82
2022/11/01 05:44:56;;;;;;;7.85;1.00;;;;;;;;;;5126861;27;20048;-82
2022/11/01 05:47:23;;;;;;;8.10;1.10;;;;;;;;;;5127004;27;20096;-82
2022/11/01 05:49:55;;;;;;;4.40;0.73;;;;;;;;;;5137173;27;20063;-82
2022/11/01 05:52:27;;;;;;;6.40;0.95;;;;;;;;;;5123132;27;20055;-82
2022/11/01 05:54:54;;;;;;;4.80;1.20;;;;;;;;;;5129265;27;20055;-82
2022/11/01 05:57:26;;;;;;;4.32;0.90;;;;;;;;;;5127509;27;20059;-82
2022/11/01 05:59:59;;;;;;;7.80;1.02;;;;;;;;;;5131674;27;20051;-84
2022/11/01 06:02:29;;;;;;;;;;;;;;;;;;5127595;27;20059;-83
2022/11/01 06:05:23;;;;;;;5.80;0.95;;;;;;;;;;5127107;27;48533;-83
2022/11/01 06:08:03;;;;;;;4.97;0.93;;;;;;;;;;5112049;27;20051;-84
2022/11/01 06:10:39;;;;;;;4.00;1.02;;;;;;;;;;5128555;27;20060;-83
2022/11/01 06:13:09;;;;;;;5.65;1.02;;;;;;;;;;5118194;27;20052;-83
2022/11/01 06:15:42;;;;;;;3.20;0.80;;;;;;;;;;5130012;27;20082;-83
2022/11/01 06:18:09;;;;;;;6.18;1.05;;;;;;;;;;5150308;27;20514;-84
2022/11/01 06:20:48;;;;;;;4.78;1.08;;;;;;;;;;5132026;27;20546;-83
2022/11/01 06:23:24;;;;;;;5.38;0.90;;;;;;;;;;5128404;27;20126;-83
2022/11/01 06:26:00;;;;;;;8.60;1.15;;;;;;;;;;5149786;27;20055;-83
2022/11/01 06:28:45;;;;;;;4.05;1.10;;;;;;;;;;5132078;27;20163;-81
2022/11/01 06:31:21;;;;;;;3.92;1.10;;;;;;;;;;5127236;27;20071;-81
2022/11/01 06:33:51;;;;;;;7.28;1.20;;;;;;;;;;5108446;27;20067;-81
2022/11/01 06:36:27;;;;;;;10.32;1.17;;;;;;;;;;5120996;27;20128;-81
2022/11/01 06:39:03;;;;;;;7.00;1.02;;;;;;;;;;5127214;27;20050;-82
2022/11/01 06:41:42;;;;;;;11.25;1.30;;;;;;;;;;5129070;27;20062;-81
2022/11/01 06:44:17;;;;;;;6.35;1.10;;;;;;;;;;5128372;27;20792;-81
2022/11/01 06:46:54;;;;;;;7.40;1.27;;;;;;;;;;5125955;27;20055;-81
2022/11/01 06:49:33;;;;;;;9.48;1.30;;;;;;;;;;5125317;27;20043;-81
2022/11/01 06:52:07;;;;;;;10.77;1.50;;;;;;;;;;5126972;27;20059;-81
2022/11/01 06:54:35;;;;;;;8.93;1.13;;;;;;;;;;5153850;27;20027;-81
2022/11/01 06:57:11;;;;;;;8.05;1.13;;;;;;;;;;5137875;27;20073;-81
2022/11/01 06:59:51;;;;;;;8.50;1.15;;;;;;;;;;5127945;27;20325;-81
2022/11/01 07:02:24;;;;;;;6.00;1.20;;;;;;;;;;5117501;27;20077;-81
2022/11/01 07:05:05;;;;;;;11.43;1.45;;;;;;;;;;5138348;27;20099;-81
2022/11/01 07:07:53;;;;;;;6.45;1.35;;;;;;;;;;5141347;27;20110;-81
2022/11/01 07:10:23;;;;;;;9.30;2.08;;;;;;;;;;5129746;27;20557;-81
2022/11/01 07:12:58;;;;;;;7.93;1.77;;;;;;;;;;5129949;27;20124;-81
2022/11/01 07:15:34;;;;;;;11.55;1.40;;;;;;;;;;5146620;27;20052;-81
2022/11/01 07:18:10;;;;;;;6.82;1.17;;;;;;;;;;5129312;27;20062;-81
2022/11/01 07:20:41;;;;;;;10.65;1.42;;;;;;;;;;5130095;27;20051;-81
2022/11/01 07:23:11;;;;;;;14.05;1.50;;;;;;;;;;5125929;27;20595;-81
2022/11/01 07:25:42;;;;;;;;;;;;;;;;;;5146465;27;20638;-80
2022/11/01 07:28:13;;;;;;;10.05;2.67;;;;;;;;;;5127188;27;45453;-80
2022/11/01 07:30:43;;;;;;;10.53;1.47;;;;;;;;;;5122325;27;20536;-81
2022/11/01 07:33:14;;;;;;;6.40;1.20;;;;;;;;;;5124128;27;20528;-82
2022/11/01 07:35:46;;;;;;;11.80;1.98;;;;;;;;;;5130002;27;20156;-82
2022/11/01 07:38:27;;;;;;;9.32;1.67;;;;;;;;;;5145665;27;20051;-82
2022/11/01 07:40:53;;;;;;;8.15;1.30;;;;;;;;;;5127110;27;20049;-82
2022/11/01 07:43:23;;;;;;;5.78;1.13;;;;;;;;;;5146824;27;20139;-80
2022/11/01 07:46:00;;;;;;;9.95;1.52;;;;;;;;;;5122324;27;20918;-80
2022/11/01 07:48:32;;;;;;;8.60;1.35;;;;;;;;;;5127811;27;20532;-79
2022/11/01 07:51:06;;;;;;;11.23;1.65;;;;;;;;;;5124058;27;20436;-80
2022/11/01 07:53:40;;;;;;;11.70;1.42;;;;;;;;;;5125849;27;20398;-79
2022/11/01 07:56:09;;;;;;;6.28;1.30;;;;;;;;;;5123190;27;20821;-80
2022/11/01 07:58:36;;;;;;;10.93;1.35;;;;;;;;;;5142444;27;20441;-80
2022/11/01 08:01:05;;;;;;;11.93;2.75;;;;;;;;;;5127366;27;20498;-80
2022/11/01 08:03:41;;;;;;;10.13;1.50;;;;;;;;;;5128030;27;20051;-80
2022/11/01 08:06:17;;;;;;;8.02;1.83;;;;;;;;;;5140063;27;20543;-80
2022/11/01 08:08:49;;;;;;;11.15;1.42;;;;;;;;;;5125919;27;20058;-80
2022/11/01 08:11:19;;;;;;;8.63;1.40;;;;;;;;;;5124522;27;21085;-79
2022/11/01 08:13:48;;;;;;;12.80;1.50;;;;;;;;;;5133353;27;20047;-79
2022/11/01 08:16:18;;;;;;;8.93;1.42;;;;;;;;;;5145097;27;20604;-78
2022/11/01 08:19:01;;;;;;;9.52;1.35;;;;;;;;;;5126648;27;20141;-79
2022/11/01 08:21:29;;;;;;;9.80;1.60;;;;;;;;;;5138494;27;20052;-79
2022/11/01 08:23:58;;;;;;;7.53;1.40;;;;;;;;;;5141598;27;20051;-78
2022/11/01 08:26:28;;;;;;;14.70;1.55;;;;;;;;;;5110611;27;20985;-78
2022/11/01 08:29:03;;;;;;;9.63;1.58;;;;;;;;;;5145449;27;20672;-79
2022/11/01 08:31:31;;;;;;;12.85;2.10;;;;;;;;;;5142868;27;20059;-79
2022/11/01 08:34:00;;;;;;;9.52;1.30;;;;;;;;;;5145441;27;20055;-78
2022/11/01 08:36:31;;;;;;;9.82;1.35;;;;;;;;;;5113735;27;20043;-79
2022/11/01 08:39:04;;;;;;;12.00;1.75;;;;;;;;;;5142366;27;20717;-78
2022/11/01 08:41:37;;;;;;;8.43;1.30;;;;;;;;;;5128509;27;20521;-78
2022/11/01 08:44:09;;;;;;;16.23;1.50;;;;;;;;;;5144760;27;20047;-78
2022/11/01 08:46:43;;;;;;;12.77;2.08;;;;;;;;;;5121343;27;20094;-79
2022/11/01 08:49:21;;;;;;;16.08;1.52;;;;;;;;;;5142937;27;20577;-78
2022/11/01 08:51:48;;;;;;;10.15;1.42;;;;;;;;;;5143013;27;21260;-77
2022/11/01 08:54:18;;;;;;;13.10;1.38;;;;;;;;;;5127631;27;20496;-78
2022/11/01 08:56:52;;;;;;;9.65;1.85;;;;;;;;;;5124732;27;20051;-78
2022/11/01 08:59:25;;;;;;;13.75;2.50;;;;;;;;;;5132417;27;20197;-78
2022/11/01 09:02:04;;;;;;;10.52;1.80;;;;;;;;;;5115429;27;20508;-78
2022/11/01 09:04:32;;;;;;;18.35;1.70;;;;;;;;;;5125407;27;20075;-78
2022/11/01 09:07:01;;;;;;;9.85;1.48;;;;;;;;;;5136534;27;20135;-79
2022/11/01 09:09:29;;;;;;;9.80;1.70;;;;;;;;;;5127300;27;20051;-77
2022/11/01 09:12:11;;;;;;;8.70;1.52;;;;;;;;;;5127141;27;20055;-78
2022/11/01 09:14:40;;;;;;;9.73;1.63;;;;;;;;;;5127854;27;20092;-78
2022/11/01 09:17:11;;;;;;;10.88;1.33;;;;;;;;;;5127475;27;20058;-78
2022/11/01 09:19:43;;;;;;;10.25;1.63;;;;;;;;;;5132488;27;20525;-78
2022/11/01 09:22:27;;;;;;;9.00;1.30;;;;;;;;;;5132801;27;20070;-79
2022/11/01 09:24:56;;;;;;;7.85;2.17;;;;;;;;;;5107627;27;20055;-80
2022/11/01 09:27:29;;;;;;;8.60;1.48;;;;;;;;;;5118842;27;20100;-80
2022/11/01 09:30:08;;;;;;;18.70;2.05;;;;;;;;;;5128886;27;20055;-79
2022/11/01 09:32:41;;;;;;;8.73;1.67;;;;;;;;;;5127874;27;20047;-79
2022/11/01 09:35:08;;;;;;;11.77;2.55;;;;;;;;;;5119274;27;20127;-79
2022/11/01 09:37:43;;;;;;;12.00;1.52;;;;;;;;;;5146722;27;20051;-79
2022/11/01 09:40:20;;;;;;;13.35;2.00;;;;;;;;;;5128486;27;20043;-79
2022/11/01 09:43:02;;;;;;;11.25;1.60;;;;;;;;;;5132580;27;20059;-80
2022/11/01 09:45:36;;;;;;;13.18;1.80;;;;;;;;;;5122360;27;20047;-80
2022/11/01 09:48:15;;;;;;;13.10;2.03;;;;;;;;;;5145584;27;20063;-79
2022/11/01 09:50:45;;;;;;;11.55;1.77;;;;;;;;;;5144122;27;20939;-78
2022/11/01 09:53:17;;;;;;;9.95;1.70;;;;;;;;;;5143302;27;20048;-78
2022/11/01 09:56:08;;;;;;;11.75;1.92;;;;;;;;;;5124860;27;20086;-79
2022/11/01 09:58:53;;;;;;;8.75;1.58;;;;;;;;;;5127559;27;20059;-79
2022/11/01 10:01:26;;;;;;;13.50;1.70;;;;;;;;;;5125914;27;20533;-78
2022/11/01 10:04:32;;;;;;;12.65;2.10;;;;;;;;;;5115125;27;20052;-80
2022/11/01 10:07:08;;;;;;;12.38;1.70;;;;;;;;;;5127979;27;20082;-80
2022/11/01 10:09:57;;;;;;;18.92;1.52;;;;;;;;;;5130367;27;20036;-80
2022/11/01 10:12:25;;;;;;;11.90;2.03;;;;;;;;;;5119335;27;20574;-79
2022/11/01 10:15:09;;;;;;;12.73;1.88;;;;;;;;;;5146582;27;20055;-80
2022/11/01 10:17:52;;;;;;;14.13;1.65;;;;;;;;;;5137247;27;20047;-78
2022/11/01 10:20:23;;;;;;;12.65;1.70;;;;;;;;;;5123410;27;20141;-78
2022/11/01 10:22:50;;;;;;;10.10;1.40;;;;;;;;;;5142631;27;20059;-78
2022/11/01 10:25:34;;;;;;;9.23;1.50;;;;;;;;;;5140802;27;22181;-80
2022/11/01 10:28:05;;;;;;;13.80;1.95;;;;;;;;;;5141319;27;20063;-79
2022/11/01 10:30:40;;;;;;;10.85;1.40;;;;;;;;;;5126180;27;20059;-78
2022/11/01 10:33:11;;;;;;;14.60;1.65;;;;;;;;;;5148566;27;20051;-79
2022/11/01 10:35:51;;;;;;;10.73;1.73;;;;;;;;;;5146568;27;20414;-79
2022/11/01 10:38:31;;;;;;;14.43;1.85;;;;;;;;;;5128914;27;20088;-79
2022/11/01 10:41:31;;;;;;;9.50;1.95;;;;;;;;;;5142707;27;20513;-79
2022/11/01 10:44:00;;;;;;;11.95;1.75;;;;;;;;;;5127554;27;20052;-79
2022/11/01 10:46:32;;;;;;;8.82;1.70;;;;;;;;;;5128223;27;20035;-79
2022/11/01 10:49:13;;;;;;;8.05;1.38;;;;;;;;;;5149667;27;20110;-80
2022/11/01 10:51:45;;;;;;;10.07;1.73;;;;;;;;;;5127456;27;20061;-78
2022/11/01 10:54:25;;;;;;;7.40;1.23;;;;;;;;;;5128483;27;20062;-80
2022/11/01 10:59:51;;;;;;;9.15;1.50;;;;;;;;;;5141338;27;20165;-78
2022/11/01 11:02:28;;;;;;;10.13;1.38;;;;;;;;;;5148758;27;20043;-79
2022/11/01 11:04:58;;;;;;;10.82;1.85;;;;;;;;;;5141626;27;20052;-80
2022/11/01 11:07:30;;;;;;;9.73;1.45;;;;;;;;;;5124412;27;20054;-80
2022/11/01 11:10:01;;;;;;;8.20;1.52;;;;;;;;;;5146036;27;20124;-79
2022/11/01 11:12:30;;;;;;;11.60;2.10;;;;;;;;;;5147314;27;20051;-79
2022/11/01 11:15:02;;;;;;;11.95;2.08;;;;;;;;;;5125695;27;20055;-80
2022/11/01 11:17:43;;;;;;;11.10;1.83;;;;;;;;;;5128472;27;20059;-79
2022/11/01 11:20:24;;;;;;;10.82;1.85;;;;;;;;;;5129512;27;20066;-80
2022/11/01 11:22:57;;;;;;;13.40;1.70;;;;;;;;;;5144181;27;20432;-80
2022/11/01 11:25:41;;;;;;;7.78;1.38;;;;;;;;;;5125606;27;20050;-80
2022/11/01 11:28:16;;;;;;;;;;;;;;;;;;5148694;27;20487;-79
2022/11/01 11:30:54;;;;;;;8.90;1.20;;;;;;;;;;5145857;27;47676;-80
2022/11/01 11:33:24;;;;;;;10.05;1.75;;;;;;;;;;5145865;27;20057;-80
2022/11/01 11:36:00;;;;;;;10.70;1.58;;;;;;;;;;5144194;27;20055;-80
2022/11/01 11:38:44;;;;;;;14.38;1.85;;;;;;;;;;5147542;27;20053;-80
2022/11/01 11:41:35;;;;;;;16.52;2.00;;;;;;;;;;5145828;27;20437;-80
2022/11/01 11:44:03;;;;;;;8.98;1.65;;;;;;;;;;5120905;27;20051;-79
2022/11/01 11:46:38;;;;;;;9.23;1.58;;;;;;;;;;5116600;27;20189;-79
2022/11/01 11:49:24;;;;;;;11.95;1.85;;;;;;;;;;5126760;27;20052;-79
2022/11/01 11:51:58;;;;;;;9.60;1.40;;;;;;;;;;5123600;27;20051;-80
2022/11/01 11:54:31;;;;;;;15.85;1.83;;;;;;;;;;5145134;27;20153;-78
2022/11/01 11:57:27;;;;;;;14.25;1.85;;;;;;;;;;5144487;27;20051;-80
2022/11/01 12:00:04;;;;;;;6.55;1.20;;;;;;;;;;5122270;27;20235;-80
2022/11/01 12:02:36;;;;;;;11.50;1.70;;;;;;;;;;5142870;27;20052;-78
2022/11/01 12:05:16;;;;;;;7.38;1.50;;;;;;;;;;5126561;27;20051;-79
2022/11/01 12:07:47;;;;;;;9.67;1.90;;;;;;;;;;5146006;27;20055;-79
2022/11/01 12:10:29;;;;;;;6.25;1.35;;;;;;;;;;5129122;27;20301;-80
2022/11/01 12:13:20;;;;;;;11.57;1.40;;;;;;;;;;5129757;27;20051;-80
2022/11/01 12:16:04;;;;;;;8.40;1.40;;;;;;;;;;5129974;27;20043;-80
2022/11/01 12:18:33;;;;;;;11.63;1.85;;;;;;;;;;5144252;27;20057;-79
2022/11/01 12:21:00;;;;;;;10.00;1.67;;;;;;;;;;5145578;27;20062;-80
2022/11/01 12:23:39;;;;;;;10.18;1.40;;;;;;;;;;5127661;27;20122;-80
2022/11/01 12:26:10;;;;;;;8.07;1.30;;;;;;;;;;5116673;27;20057;-79
2022/11/01 12:28:49;;;;;;;8.45;1.63;;;;;;;;;;5127580;27;20047;-80
2022/11/01 12:31:22;;;;;;;;;;;;;;;;;;5146775;27;20437;-80
2022/11/01 12:34:26;;;;;;;7.25;1.40;;;;;;;;;;5124180;27;43625;-81
2022/11/01 12:37:29;;;;;;;9.68;1.63;;;;;;;;;;5097058;27;20055;-80
2022/11/01 12:40:22;;;;;;;8.25;1.33;;;;;;;;;;5139618;27;20047;-80
2022/11/01 12:43:01;;;;;;;10.70;1.40;;;;;;;;;;5146263;27;20051;-80
2022/11/01 12:45:48;;;;;;;9.02;1.25;;;;;;;;;;5121775;27;20848;-79
2022/11/01 12:48:46;;;;;;;10.57;1.52;;;;;;;;;;5115590;27;20075;-79
2022/11/01 12:54:37;;;;;;;7.85;1.42;;;;;;;;;;5139202;27;20043;-80
2022/11/01 12:57:18;;;;;;;8.70;1.15;;;;;;;;;;5114997;27;20061;-81
2022/11/01 12:59:53;;;;;;;7.40;1.55;;;;;;;;;;5113504;27;20067;-80
2022/11/01 13:02:21;;;;;;;8.07;1.20;;;;;;;;;;5133340;27;20055;-80
2022/11/01 13:05:21;;;;;;;6.45;1.23;;;;;;;;;;5105124;27;20055;-80
2022/11/01 13:07:59;;;;;;;6.72;1.20;;;;;;;;;;5131701;27;20047;-80
2022/11/01 13:10:37;;;;;;;9.63;1.23;;;;;;;;;;5136107;27;20059;-79
2022/11/01 13:13:32;;;;;;;7.18;0.90;;;;;;;;;;5116696;27;20138;-80
2022/11/01 13:16:20;;;;;;;9.52;1.30;;;;;;;;;;5121378;27;20057;-79
2022/11/01 13:18:55;;;;;;;7.05;1.20;;;;;;;;;;5144395;27;20055;-80
2022/11/01 13:21:41;;;;;;;8.68;1.15;;;;;;;;;;5145193;27;20051;-79
2022/11/01 13:24:14;;;;;;;7.72;1.40;;;;;;;;;;5136585;27;20113;-80
2022/11/01 13:26:51;;;;;;;8.35;1.30;;;;;;;;;;5118324;27;20550;-80
2022/11/01 13:29:42;;;;;;;6.45;0.98;;;;;;;;;;5126708;27;20081;-81
2022/11/01 13:32:43;;;;;;;5.38;0.90;;;;;;;;;;5109583;27;20130;-80
2022/11/01 13:35:16;;;;;;;8.48;1.20;;;;;;;;;;5113474;27;20051;-79
2022/11/01 13:38:16;;;;;;;8.70;1.13;;;;;;;;;;5145724;27;20112;-80
2022/11/01 13:40:59;;;;;;;7.38;1.00;;;;;;;;;;5143036;27;20051;-80
2022/11/01 13:43:47;;;;;;;7.45;1.10;;;;;;;;;;5143905;27;20104;-80
2022/11/01 13:46:44;;;;;;;10.68;1.65;;;;;;;;;;5143028;27;20101;-80
2022/11/01 13:49:43;;;;;;;6.28;1.00;;;;;;;;;;5141752;27;20070;-80
2022/11/01 13:52:22;;;;;;;8.43;1.17;;;;;;;;;;5111493;27;20048;-80
2022/11/01 13:55:02;;;;;;;8.95;1.27;;;;;;;;;;5143148;27;20047;-82
2022/11/01 13:57:33;;;;;;;8.75;1.27;;;;;;;;;;5144023;27;20051;-80
2022/11/01 14:00:30;;;;;;;8.35;1.30;;;;;;;;;;5124151;27;20047;-81
2022/11/01 14:03:00;;;;;;;7.05;1.00;;;;;;;;;;5141619;27;20176;-80
2022/11/01 14:05:42;;;;;;;7.40;0.98;;;;;;;;;;5144359;27;20047;-80
2022/11/01 14:08:13;;;;;;;7.88;1.10;;;;;;;;;;5145268;27;20075;-80
2022/11/01 14:10:50;;;;;;;5.35;0.90;;;;;;;;;;5118682;27;20051;-80
2022/11/01 14:13:31;;;;;;;6.50;1.05;;;;;;;;;;5135028;27;20105;-80
2022/11/01 14:16:19;;;;;;;8.50;1.58;;;;;;;;;;5140908;27;20048;-80
2022/11/01 14:19:14;;;;;;;6.18;1.08;;;;;;;;;;5133432;27;20755;-80
2022/11/01 14:21:48;;;;;;;7.72;1.42;;;;;;;;;;5122412;27;20055;-80
2022/11/01 14:24:24;;;;;;;9.35;1.55;;;;;;;;;;5130093;27;20051;-81
2022/11/01 14:27:02;;;;;;;5.28;0.90;;;;;;;;;;5137836;27;20108;-80
2022/11/01 14:30:05;;;;;;;6.78;1.10;;;;;;;;;;5147403;27;20062;-80
2022/11/01 14:32:32;;;;;;;6.97;1.00;;;;;;;;;;5107234;27;20063;-80
2022/11/01 14:35:07;;;;;;;7.07;1.13;;;;;;;;;;5148337;27;20081;-79
2022/11/01 14:37:39;;;;;;;7.55;1.20;;;;;;;;;;5128246;27;20124;-80
2022/11/01 14:40:25;;;;;;;6.43;0.90;;;;;;;;;;5148021;27;20055;-80
2022/11/01 14:42:54;;;;;;;8.85;1.33;;;;;;;;;;5126500;27;20043;-80
2022/11/01 14:45:22;;;;;;;7.35;1.40;;;;;;;;;;5130154;27;20054;-81
2022/11/01 14:47:59;;;;;;;5.93;1.02;;;;;;;;;;5126265;27;20083;-79
2022/11/01 14:50:38;;;;;;;9.98;1.20;;;;;;;;;;5147363;27;20142;-81
2022/11/01 14:53:16;;;;;;;6.60;1.15;;;;;;;;;;5145845;27;20055;-80
2022/11/01 14:55:50;;;;;;;10.10;1.17;;;;;;;;;;5144547;27;20113;-79
2022/11/01 14:58:37;;;;;;;7.93;0.95;;;;;;;;;;5115193;27;20044;-80
2022/11/01 15:01:11;;;;;;;5.95;1.23;;;;;;;;;;5104518;27;20130;-80
2022/11/01 15:03:52;;;;;;;9.75;1.75;;;;;;;;;;5126847;27;20051;-79
2022/11/01 15:06:26;;;;;;;10.13;1.77;;;;;;;;;;5116261;27;20051;-79
2022/11/01 15:09:02;;;;;;;8.32;1.75;;;;;;;;;;5139957;27;20054;-80
2022/11/01 15:11:33;;;;;;;11.18;1.20;;;;;;;;;;5115813;27;20199;-80
2022/11/01 15:14:09;;;;;;;5.65;1.00;;;;;;;;;;5148339;27;20059;-80
2022/11/01 15:16:50;;;;;;;9.55;1.40;;;;;;;;;;5129991;27;20070;-79
2022/11/01 15:19:26;;;;;;;4.10;0.85;;;;;;;;;;5138262;27;20051;-80
2022/11/01 15:21:56;;;;;;;9.05;1.15;;;;;;;;;;5136672;27;20055;-81
2022/11/01 15:24:27;;;;;;;7.93;1.27;;;;;;;;;;5131791;27;20059;-80
2022/11/01 15:27:02;;;;;;;12.55;1.67;;;;;;;;;;5128421;27;20046;-80
2022/11/01 15:29:35;;;;;;;4.07;1.10;;;;;;;;;;5148244;27;20051;-80
2022/11/01 15:32:05;;;;;;;7.77;1.47;;;;;;;;;;5146730;27;20047;-80
2022/11/01 15:34:36;;;;;;;8.60;1.05;;;;;;;;;;5144368;27;20062;-81
2022/11/01 15:37:15;;;;;;;6.22;1.05;;;;;;;;;;5143269;27;20051;-80
2022/11/01 15:39:42;;;;;;;5.85;1.05;;;;;;;;;;5144694;27;20052;-81
2022/11/01 15:42:23;;;;;;;4.97;1.05;;;;;;;;;;5126862;27;20061;-81
2022/11/01 15:45:28;;;;;;;6.40;1.35;;;;;;;;;;5143575;27;20116;-79
2022/11/01 15:47:59;;;;;;;6.18;1.00;;;;;;;;;;5144083;27;20055;-79
2022/11/01 15:50:37;;;;;;;7.78;1.23;;;;;;;;;;5143068;27;20061;-79